Time;durP1;ratioP1;P1;durP2;ratioP2;P2;SDS_P1;SDS_P2;PMS_P1;PMS_P2;Temp;Humidity;BMP_temperature;BMP_pressure;BME280_temperature;BME280_humidity;BME280_pressure;Samples;Min_cycle;Max_cycle;Signal;HPM_P1;HPM_P2
2023/01/15 00:01:49;;;;;;;1.20;1.10;;;12.50;98.00;;;;;;5053917;28;20458;-67
2023/01/15 00:04:17;;;;;;;1.20;1.10;;;12.50;98.00;;;;;;5054058;28;20880;-67
2023/01/15 00:06:44;;;;;;;1.40;1.30;;;12.50;98.00;;;;;;5053751;28;20499;-67
2023/01/15 00:09:16;;;;;;;1.30;1.00;;;12.40;98.00;;;;;;5053785;28;20515;-67
2023/01/15 00:11:43;;;;;;;1.20;1.00;;;12.40;98.00;;;;;;5053698;28;20458;-67
2023/01/15 00:14:11;;;;;;;1.20;1.10;;;12.50;98.00;;;;;;5053687;28;20456;-67
2023/01/15 00:16:39;;;;;;;1.20;1.10;;;12.50;98.00;;;;;;5053622;28;20458;-68
2023/01/15 00:19:11;;;;;;;1.20;1.00;;;12.40;98.00;;;;;;5053601;28;20485;-67
2023/01/15 00:21:38;;;;;;;1.27;1.10;;;12.50;98.00;;;;;;5053567;28;20488;-67
2023/01/15 00:29:49;;;;;;;1.17;1.00;;;12.50;98.00;;;;;;4992113;28;20495;-67
2023/01/15 00:32:18;;;;;;;1.50;1.07;;;12.50;98.00;;;;;;5026353;28;20455;-67
2023/01/15 00:34:46;;;;;;;1.20;1.00;;;12.60;98.00;;;;;;5053480;28;20837;-67
2023/01/15 00:37:14;;;;;;;1.30;1.10;;;12.60;98.00;;;;;;5053376;28;20463;-67
2023/01/15 00:39:41;;;;;;;1.20;1.10;;;12.60;98.00;;;;;;5053413;28;20483;-67
2023/01/15 00:42:08;;;;;;;1.20;1.10;;;12.60;98.00;;;;;;5052472;28;20733;-67
2023/01/15 00:44:38;;;;;;;1.20;1.10;;;12.60;98.00;;;;;;5053352;28;20457;-67
2023/01/15 00:47:05;;;;;;;1.73;1.20;;;12.60;98.00;;;;;;5053128;28;20514;-67
2023/01/15 00:49:32;;;;;;;1.60;1.10;;;12.50;98.00;;;;;;5053202;28;20793;-67
2023/01/15 00:52:01;;;;;;;1.20;1.00;;;12.50;98.00;;;;;;5053136;28;20467;-67
2023/01/15 00:54:28;;;;;;;1.20;1.00;;;12.50;98.00;;;;;;5052844;28;20446;-67
2023/01/15 00:56:55;;;;;;;1.20;1.00;;;12.60;98.00;;;;;;5052903;28;20521;-67
2023/01/15 00:59:22;;;;;;;1.20;1.00;;;12.60;98.00;;;;;;5035118;28;20489;-67
2023/01/15 01:01:51;;;;;;;1.40;1.20;;;12.60;98.00;;;;;;5052867;28;20518;-67
2023/01/15 01:04:18;;;;;;;2.47;1.20;;;12.60;98.00;;;;;;5035182;28;20869;-67
2023/01/15 01:06:45;;;;;;;1.17;1.00;;;12.50;98.00;;;;;;5052768;28;20960;-67
2023/01/15 01:09:15;;;;;;;1.20;1.00;;;12.60;98.00;;;;;;5052819;28;20954;-68
2023/01/15 01:11:44;;;;;;;1.20;1.00;;;12.60;98.00;;;;;;5052567;28;21008;-67
2023/01/15 01:14:12;;;;;;;1.20;1.00;;;12.60;98.00;;;;;;5052574;28;20462;-68
2023/01/15 01:16:40;;;;;;;1.43;1.10;;;12.60;98.00;;;;;;5052335;28;20523;-67
2023/01/15 01:19:11;;;;;;;1.20;1.00;;;12.70;98.00;;;;;;5052500;28;20474;-67
2023/01/15 01:21:39;;;;;;;1.83;1.13;;;12.70;98.00;;;;;;5052596;28;20468;-67
2023/01/15 01:24:07;;;;;;;1.30;1.10;;;12.70;98.00;;;;;;5052767;28;20465;-66
2023/01/15 01:26:36;;;;;;;1.30;1.00;;;12.80;98.00;;;;;;5052818;28;20543;-67
2023/01/15 01:29:04;;;;;;;1.33;1.10;;;12.80;98.00;;;;;;5052485;28;20467;-67
2023/01/15 01:31:31;;;;;;;1.20;0.90;;;12.90;98.00;;;;;;5052216;28;20959;-67
2023/01/15 01:34:01;;;;;;;1.20;1.00;;;12.90;98.00;;;;;;5052277;28;20470;-67
2023/01/15 01:36:31;;;;;;;1.20;1.00;;;12.80;98.00;;;;;;5052127;28;20863;-67
2023/01/15 01:38:58;;;;;;;1.30;1.10;;;12.90;98.00;;;;;;5052214;28;20576;-67
2023/01/15 01:41:26;;;;;;;1.20;1.00;;;13.00;98.00;;;;;;5052034;28;20502;-67
2023/01/15 01:43:58;;;;;;;1.43;1.27;;;12.90;98.00;;;;;;5034489;28;20452;-67
2023/01/15 01:46:26;;;;;;;1.20;1.10;;;13.00;98.00;;;;;;5052275;28;20464;-67
2023/01/15 01:48:59;;;;;;;1.20;1.00;;;12.90;98.00;;;;;;5051830;28;20467;-67
2023/01/15 01:51:30;;;;;;;1.20;1.00;;;12.90;98.00;;;;;;5052133;28;20472;-67
2023/01/15 01:53:59;;;;;;;1.30;1.00;;;13.00;98.00;;;;;;5051877;28;20503;-67
2023/01/15 01:56:27;;;;;;;1.30;1.07;;;13.00;98.00;;;;;;5051805;28;20458;-67
2023/01/15 01:58:56;;;;;;;1.70;1.03;;;13.00;98.00;;;;;;5034089;28;20533;-67
2023/01/15 02:01:25;;;;;;;1.20;1.00;;;13.00;98.00;;;;;;5051550;28;20503;-67
2023/01/15 02:03:53;;;;;;;1.20;1.00;;;12.90;98.00;;;;;;5051809;28;20472;-67
2023/01/15 02:06:20;;;;;;;1.80;1.03;;;13.00;98.00;;;;;;5051967;28;20452;-67
2023/01/15 02:08:47;;;;;;;1.20;1.00;;;13.00;98.00;;;;;;5034017;28;20459;-67
2023/01/15 02:11:19;;;;;;;1.30;1.00;;;13.00;98.00;;;;;;5051635;28;20466;-67
2023/01/15 02:13:53;;;;;;;1.20;1.00;;;13.00;98.00;;;;;;5051318;28;20464;-67
2023/01/15 02:16:28;;;;;;;1.20;1.00;;;12.90;98.00;;;;;;5051425;28;20460;-67
2023/01/15 02:19:10;;;;;;;1.30;1.17;;;12.90;98.00;;;;;;5051577;28;20464;-67
2023/01/15 02:21:48;;;;;;;1.20;1.00;;;12.90;98.00;;;;;;5051023;28;20485;-67
2023/01/15 02:24:23;;;;;;;1.20;0.90;;;12.90;98.00;;;;;;5051600;28;20466;-67
2023/01/15 02:27:13;;;;;;;1.20;1.00;;;12.90;98.00;;;;;;5051674;28;20457;-67
2023/01/15 02:29:49;;;;;;;1.20;1.00;;;12.90;98.00;;;;;;5051321;28;20465;-67
2023/01/15 02:32:20;;;;;;;1.20;1.00;;;12.90;98.00;;;;;;5051005;28;20460;-67
2023/01/15 02:34:53;;;;;;;1.43;1.13;;;12.90;98.00;;;;;;5051162;28;20458;-67
2023/01/15 02:37:25;;;;;;;1.20;0.97;;;12.90;98.00;;;;;;5051284;28;20483;-67
2023/01/15 02:39:55;;;;;;;1.20;1.17;;;12.90;98.00;;;;;;5050990;28;20482;-67
2023/01/15 02:42:25;;;;;;;1.20;1.00;;;13.00;98.00;;;;;;5033626;28;20454;-67
2023/01/15 02:44:55;;;;;;;1.30;1.00;;;12.90;98.00;;;;;;5051078;28;20519;-67
2023/01/15 02:47:26;;;;;;;1.40;1.10;;;12.90;98.00;;;;;;5051065;28;20453;-67
2023/01/15 02:49:56;;;;;;;1.20;1.00;;;13.00;98.00;;;;;;5050968;28;20518;-67
2023/01/15 02:52:28;;;;;;;1.20;1.00;;;13.00;98.00;;;;;;5051042;28;20461;-67
2023/01/15 02:55:05;;;;;;;1.20;1.00;;;13.00;98.00;;;;;;5051210;28;20468;-67
2023/01/15 02:57:37;;;;;;;1.20;1.00;;;13.00;98.00;;;;;;5050877;28;20556;-67
2023/01/15 03:00:08;;;;;;;1.20;1.10;;;13.00;98.00;;;;;;5051077;28;20538;-67
2023/01/15 03:02:40;;;;;;;1.40;1.00;;;13.00;98.00;;;;;;5050931;28;20462;-67
2023/01/15 03:05:11;;;;;;;1.20;1.00;;;13.00;98.00;;;;;;5052047;28;20504;-67
2023/01/15 03:07:45;;;;;;;1.20;1.00;;;13.00;98.00;;;;;;5054902;28;20460;-67
2023/01/15 03:10:12;;;;;;;1.20;1.10;;;13.00;98.00;;;;;;5054872;28;20529;-67
2023/01/15 03:18:30;;;;;;;1.30;1.00;;;12.90;98.00;;;;;;5054611;28;20503;-67
2023/01/15 03:21:01;;;;;;;1.20;1.10;;;12.90;98.00;;;;;;5054775;28;20492;-67
2023/01/15 03:23:30;;;;;;;1.20;1.00;;;12.90;98.00;;;;;;5055090;28;20810;-67
2023/01/15 03:25:57;;;;;;;1.20;1.10;;;12.90;98.00;;;;;;5055195;28;20454;-67
2023/01/15 03:28:27;;;;;;;1.20;1.00;;;12.80;98.00;;;;;;5054872;28;20465;-67
2023/01/15 03:30:55;;;;;;;1.20;1.10;;;12.80;98.00;;;;;;5054616;28;20453;-67
2023/01/15 03:33:22;;;;;;;1.20;1.00;;;12.80;98.00;;;;;;5054787;28;21019;-67
2023/01/15 03:35:52;;;;;;;1.20;1.10;;;12.80;98.00;;;;;;5054703;28;20461;-67
2023/01/15 03:38:22;;;;;;;1.20;1.00;;;12.80;98.00;;;;;;5054435;28;20450;-67
2023/01/15 03:40:58;;;;;;;1.30;1.10;;;12.80;98.00;;;;;;5054236;28;20486;-67
2023/01/15 03:43:41;;;;;;;1.20;1.00;;;12.80;98.00;;;;;;5054243;28;20520;-67
2023/01/15 03:46:15;;;;;;;1.20;1.00;;;12.70;98.00;;;;;;5054572;28;20449;-67
2023/01/15 03:48:50;;;;;;;1.20;1.00;;;12.70;98.00;;;;;;5054222;28;20550;-67
2023/01/15 03:51:23;;;;;;;1.20;1.00;;;12.70;98.00;;;;;;5052999;28;20481;-67
2023/01/15 03:53:53;;;;;;;1.30;1.10;;;12.70;98.00;;;;;;5053876;28;20472;-67
2023/01/15 03:56:28;;;;;;;1.20;1.00;;;12.80;98.00;;;;;;5054375;28;20460;-67
2023/01/15 03:59:01;;;;;;;1.50;1.00;;;12.70;98.00;;;;;;5053658;28;20468;-67
2023/01/15 04:01:32;;;;;;;1.20;1.10;;;12.70;98.00;;;;;;5053904;28;20486;-68
2023/01/15 04:04:01;;;;;;;1.20;1.00;;;12.60;98.00;;;;;;5053922;28;20454;-67
2023/01/15 04:06:30;;;;;;;1.30;1.00;;;12.50;98.00;;;;;;5053935;28;20477;-67
2023/01/15 04:08:59;;;;;;;1.20;1.00;;;12.50;98.00;;;;;;5052568;28;20451;-67
2023/01/15 04:11:27;;;;;;;1.50;1.10;;;12.40;98.00;;;;;;5053728;28;20461;-67
2023/01/15 04:13:55;;;;;;;1.20;1.00;;;12.40;98.00;;;;;;5053766;28;21003;-67
2023/01/15 04:16:26;;;;;;;1.50;1.00;;;12.40;98.00;;;;;;5051424;28;20944;-67
2023/01/15 04:18:53;;;;;;;1.20;0.90;;;12.40;98.00;;;;;;5053632;28;20807;-67
2023/01/15 04:21:21;;;;;;;1.30;1.03;;;12.40;98.00;;;;;;5053739;28;20497;-67
2023/01/15 04:23:48;;;;;;;1.20;1.00;;;12.40;98.00;;;;;;5053516;28;20827;-67
2023/01/15 04:26:15;;;;;;;2.00;1.10;;;12.50;98.00;;;;;;5054093;28;20459;-67
2023/01/15 04:28:43;;;;;;;1.20;1.00;;;12.50;98.00;;;;;;5053599;28;20453;-67
2023/01/15 04:31:12;;;;;;;1.30;1.10;;;12.50;98.00;;;;;;5052419;28;20465;-67
2023/01/15 04:33:39;;;;;;;1.20;1.00;;;12.40;98.00;;;;;;5053251;28;20995;-67
2023/01/15 04:36:07;;;;;;;1.20;0.90;;;12.50;98.00;;;;;;5053095;28;20965;-67
2023/01/15 04:38:34;;;;;;;1.20;1.00;;;12.40;98.00;;;;;;5052989;28;20465;-67
2023/01/15 04:46:33;;;;;;;1.20;1.00;;;12.40;98.00;;;;;;5053242;28;20481;-67
2023/01/15 04:49:00;;;;;;;1.20;1.00;;;12.40;98.00;;;;;;5053012;28;20464;-67
2023/01/15 04:51:27;;;;;;;1.10;0.90;;;12.40;98.00;;;;;;5051663;28;21031;-67
2023/01/15 04:53:54;;;;;;;1.20;1.00;;;12.40;98.00;;;;;;5052780;28;20525;-67
2023/01/15 04:56:22;;;;;;;1.20;1.00;;;12.40;98.00;;;;;;5052810;28;20450;-67
2023/01/15 04:58:49;;;;;;;1.13;0.90;;;12.40;98.00;;;;;;5052752;28;20454;-67
2023/01/15 05:01:18;;;;;;;1.40;1.00;;;12.40;98.00;;;;;;5052933;28;20492;-67
2023/01/15 05:03:47;;;;;;;1.20;1.00;;;12.30;98.00;;;;;;5052782;28;20457;-67
2023/01/15 05:06:16;;;;;;;1.20;1.00;;;12.30;98.00;;;;;;5052870;28;20464;-67
2023/01/15 05:08:43;;;;;;;1.20;1.00;;;12.30;98.00;;;;;;5052923;28;20459;-67
2023/01/15 05:11:10;;;;;;;1.10;0.90;;;12.30;98.00;;;;;;5052640;28;20981;-67
2023/01/15 05:13:38;;;;;;;1.10;0.90;;;12.40;98.00;;;;;;5052541;28;20455;-68
2023/01/15 05:16:14;;;;;;;1.20;1.00;;;12.40;98.00;;;;;;5052514;28;20505;-68
2023/01/15 05:18:42;;;;;;;1.13;1.00;;;12.30;98.00;;;;;;5052662;28;20490;-67
2023/01/15 05:21:19;;;;;;;1.17;1.00;;;12.30;98.00;;;;;;5052644;28;20936;-67
2023/01/15 05:23:47;;;;;;;1.10;0.90;;;12.40;98.00;;;;;;5052601;28;20828;-68
2023/01/15 05:26:14;;;;;;;1.20;1.00;;;12.40;98.00;;;;;;5052743;28;20460;-67
2023/01/15 05:28:42;;;;;;;1.20;0.97;;;12.40;98.00;;;;;;5052386;28;20545;-67
2023/01/15 05:31:10;;;;;;;1.20;1.00;;;12.40;98.00;;;;;;5052679;28;20457;-67
2023/01/15 05:33:38;;;;;;;1.37;1.00;;;12.40;98.00;;;;;;5052289;28;20472;-68
2023/01/15 05:36:07;;;;;;;1.20;1.00;;;12.50;98.00;;;;;;5052279;28;20447;-67
2023/01/15 05:38:35;;;;;;;1.10;0.90;;;12.50;98.00;;;;;;5052019;28;20455;-67
2023/01/15 05:41:47;;;;;;;15.47;1.10;;;12.40;98.00;;;;;;5052110;28;20486;-67
2023/01/15 05:43:52;;;;;;;1.13;1.00;;;12.40;98.00;;;;;;5050807;28;20451;-67
2023/01/15 05:46:19;;;;;;;1.30;1.00;;;12.40;98.00;;;;;;5052189;28;20451;-67
2023/01/15 05:48:46;;;;;;;1.20;1.00;;;12.20;98.00;;;;;;5052143;28;20872;-67
2023/01/15 05:51:13;;;;;;;1.10;0.90;;;11.50;98.00;;;;;;5051993;28;20813;-67
2023/01/15 05:53:42;;;;;;;1.10;1.00;;;11.00;98.00;;;;;;5051678;28;20464;-67
2023/01/15 05:56:09;;;;;;;1.10;1.00;;;10.70;98.00;;;;;;5051859;28;20487;-67
2023/01/15 05:58:36;;;;;;;1.10;1.00;;;10.30;98.00;;;;;;5051717;28;20511;-67
2023/01/15 06:01:08;;;;;;;1.10;0.90;;;10.00;98.00;;;;;;5051504;28;20519;-67
2023/01/15 06:03:35;;;;;;;1.10;0.90;;;10.00;98.00;;;;;;5051752;28;20457;-67
2023/01/15 06:06:03;;;;;;;1.10;0.97;;;9.90;98.00;;;;;;5051931;28;20827;-67
2023/01/15 06:08:30;;;;;;;1.10;0.90;;;9.70;98.00;;;;;;5051185;28;20452;-67
2023/01/15 06:10:58;;;;;;;1.20;1.00;;;9.70;98.00;;;;;;5052015;28;20835;-67
2023/01/15 06:13:25;;;;;;;1.20;1.00;;;9.60;98.00;;;;;;5051414;28;20465;-67
2023/01/15 06:15:53;;;;;;;1.10;0.90;;;9.60;98.00;;;;;;5051699;28;20453;-67
2023/01/15 06:18:20;;;;;;;1.10;0.93;;;9.50;98.00;;;;;;5051214;28;20481;-67
2023/01/15 06:20:48;;;;;;;1.10;0.90;;;9.50;98.00;;;;;;5051493;28;20830;-67
2023/01/15 06:23:17;;;;;;;1.10;1.00;;;9.50;98.00;;;;;;5051527;28;20873;-67
2023/01/15 06:25:45;;;;;;;1.10;1.00;;;9.40;98.00;;;;;;5051565;28;20457;-67
2023/01/15 06:28:13;;;;;;;1.83;1.20;;;9.40;98.00;;;;;;5050268;28;20462;-67
2023/01/15 06:30:40;;;;;;;1.10;1.00;;;9.30;98.00;;;;;;5051281;28;20457;-67
2023/01/15 06:33:09;;;;;;;1.10;1.00;;;9.30;98.00;;;;;;5051283;28;20458;-67
2023/01/15 06:35:36;;;;;;;1.30;1.00;;;9.20;98.00;;;;;;5051238;28;21022;-67
2023/01/15 06:38:06;;;;;;;1.10;0.90;;;9.10;98.00;;;;;;5051183;28;20460;-67
2023/01/15 06:40:33;;;;;;;1.17;1.07;;;9.10;98.00;;;;;;5050271;28;20465;-67
2023/01/15 06:48:31;;;;;;;1.20;0.90;;;9.00;98.00;;;;;;5051086;28;20528;-67
2023/01/15 06:50:58;;;;;;;1.20;1.10;;;9.10;98.00;;;;;;5051092;28;20464;-67
2023/01/15 06:53:25;;;;;;;1.40;1.10;;;9.10;98.00;;;;;;5050842;28;20947;-67
2023/01/15 06:55:52;;;;;;;1.10;0.90;;;8.90;98.00;;;;;;5051215;28;20468;-67
2023/01/15 06:58:21;;;;;;;1.40;1.30;;;8.80;98.00;;;;;;5050902;28;21012;-66
2023/01/15 07:00:54;;;;;;;1.10;0.90;;;8.80;98.00;;;;;;5051115;28;20492;-66
2023/01/15 07:03:22;;;;;;;1.13;0.93;;;8.70;98.00;;;;;;5050662;28;20460;-66
2023/01/15 07:05:49;;;;;;;1.10;1.10;;;8.70;98.00;;;;;;5051070;28;20461;-65
2023/01/15 07:08:16;;;;;;;1.37;1.10;;;8.60;98.00;;;;;;5051126;28;20457;-64
2023/01/15 07:10:43;;;;;;;1.30;1.07;;;8.40;98.00;;;;;;5050809;28;20448;-65
2023/01/15 07:13:10;;;;;;;1.10;1.00;;;8.40;98.00;;;;;;5050821;28;20457;-65
2023/01/15 07:15:38;;;;;;;1.40;1.27;;;8.30;98.00;;;;;;5050842;28;20467;-65
2023/01/15 07:18:08;;;;;;;1.10;1.00;;;8.20;98.00;;;;;;5050626;28;20476;-65
2023/01/15 07:20:35;;;;;;;1.10;1.00;;;8.10;98.00;;;;;;5050912;28;20467;-65
2023/01/15 07:23:02;;;;;;;1.10;0.90;;;8.10;98.00;;;;;;5050811;28;20833;-65
2023/01/15 07:25:29;;;;;;;1.13;0.97;;;7.90;98.00;;;;;;5051075;28;20451;-64
2023/01/15 07:27:56;;;;;;;2.03;1.10;;;7.90;98.00;;;;;;5051105;28;20527;-65
2023/01/15 07:30:23;;;;;;;1.30;1.00;;;7.80;98.00;;;;;;5050888;28;20506;-65
2023/01/15 07:32:50;;;;;;;1.10;1.00;;;7.70;98.00;;;;;;5050788;28;20518;-65
2023/01/15 07:35:19;;;;;;;1.50;1.20;;;7.70;98.00;;;;;;5049498;28;20460;-66
2023/01/15 07:37:50;;;;;;;1.10;1.00;;;7.60;98.00;;;;;;5050630;28;20462;-65
2023/01/15 07:40:18;;;;;;;1.20;0.97;;;7.60;98.00;;;;;;5050684;28;20474;-65
2023/01/15 07:51:16;;;;;;;1.10;1.00;;;7.20;98.00;;;;;;5051442;28;20500;-65
2023/01/15 07:53:43;;;;;;;1.10;1.00;;;7.20;98.00;;;;;;5054103;28;20453;-66
2023/01/15 07:56:11;;;;;;;2.27;1.07;;;7.20;98.00;;;;;;5054221;28;20886;-66
2023/01/15 07:58:38;;;;;;;1.10;0.93;;;7.20;98.00;;;;;;5053996;28;20943;-66
2023/01/15 08:01:05;;;;;;;1.30;1.23;;;7.20;98.00;;;;;;5054035;28;20468;-66
2023/01/15 08:03:32;;;;;;;1.10;0.90;;;7.30;98.00;;;;;;5053888;28;20478;-66
2023/01/15 08:05:59;;;;;;;1.10;0.90;;;7.20;98.00;;;;;;5053135;28;20472;-65
2023/01/15 08:08:28;;;;;;;1.10;0.90;;;7.10;98.00;;;;;;5053924;28;20616;-65
2023/01/15 08:16:23;;;;;;;1.10;0.90;;;7.10;98.00;;;;;;5053726;28;20457;-65
2023/01/15 08:18:50;;;;;;;1.20;1.10;;;7.10;98.00;;;;;;5053886;28;20520;-65
2023/01/15 08:21:18;;;;;;;1.10;0.90;;;7.10;98.00;;;;;;5053746;28;20804;-65
2023/01/15 08:23:48;;;;;;;1.10;0.90;;;7.00;98.00;;;;;;5053614;28;20511;-65
2023/01/15 08:26:15;;;;;;;1.70;1.03;;;7.10;98.00;;;;;;5053848;28;20458;-65
2023/01/15 08:28:42;;;;;;;1.30;1.00;;;7.00;98.00;;;;;;5053705;28;20969;-65
2023/01/15 08:31:10;;;;;;;1.10;0.93;;;7.00;98.00;;;;;;5053864;28;20454;-65
2023/01/15 08:33:37;;;;;;;1.20;1.00;;;7.10;98.00;;;;;;5053460;28;20465;-65
2023/01/15 08:36:07;;;;;;;1.10;0.90;;;7.10;98.00;;;;;;5053679;28;20848;-65
2023/01/15 08:38:34;;;;;;;1.63;1.10;;;7.20;98.00;;;;;;5052124;28;20454;-65
2023/01/15 08:41:03;;;;;;;1.10;0.93;;;7.10;98.00;;;;;;5053211;28;20473;-65
2023/01/15 08:43:32;;;;;;;1.10;0.90;;;7.30;98.00;;;;;;5053084;28;21131;-65
2023/01/15 08:46:00;;;;;;;1.10;0.90;;;7.20;98.00;;;;;;5053398;28;20807;-65
2023/01/15 08:48:28;;;;;;;1.13;1.07;;;7.20;98.00;;;;;;5053003;28;20455;-65
2023/01/15 08:50:56;;;;;;;1.20;0.90;;;7.20;98.00;;;;;;5053427;28;20513;-65
2023/01/15 08:53:24;;;;;;;1.10;0.90;;;7.20;98.00;;;;;;5053012;28;20466;-65
2023/01/15 08:55:51;;;;;;;1.10;0.90;;;7.20;98.00;;;;;;5052840;28;21012;-65
2023/01/15 08:58:20;;;;;;;1.20;0.90;;;7.10;98.00;;;;;;5053002;28;20463;-65
2023/01/15 09:00:47;;;;;;;1.10;0.90;;;7.10;98.00;;;;;;5053147;28;20469;-64
2023/01/15 09:03:14;;;;;;;1.10;1.00;;;6.90;98.00;;;;;;5034502;28;20489;-65
2023/01/15 09:05:42;;;;;;;1.37;1.00;;;6.90;98.00;;;;;;5052818;28;20843;-65
2023/01/15 09:08:09;;;;;;;1.10;0.90;;;6.80;98.00;;;;;;5052802;28;20457;-65
2023/01/15 09:10:36;;;;;;;1.10;0.90;;;6.80;98.00;;;;;;5052705;28;20459;-65
2023/01/15 09:13:04;;;;;;;1.10;0.90;;;6.80;98.00;;;;;;5052816;28;20457;-65
2023/01/15 09:15:34;;;;;;;1.10;0.90;;;6.90;98.00;;;;;;5052670;28;20506;-65
2023/01/15 09:18:01;;;;;;;1.10;0.90;;;6.90;98.00;;;;;;5047736;28;20555;-66
2023/01/15 09:20:30;;;;;;;1.10;0.90;;;6.80;98.00;;;;;;5049826;28;20950;-64
2023/01/15 09:22:57;;;;;;;1.63;1.00;;;6.80;98.00;;;;;;5015426;28;20511;-65
2023/01/15 09:25:25;;;;;;;1.10;1.00;;;6.70;98.00;;;;;;5050318;28;20464;-66
2023/01/15 09:27:55;;;;;;;1.30;1.00;;;6.60;98.00;;;;;;5050037;28;20472;-66
2023/01/15 09:30:24;;;;;;;1.10;0.90;;;6.60;98.00;;;;;;5049859;28;20456;-65
2023/01/15 09:32:53;;;;;;;1.10;0.90;;;6.60;98.00;;;;;;5049928;28;20457;-65
2023/01/15 09:35:21;;;;;;;1.10;0.90;;;6.60;98.00;;;;;;5049576;28;20455;-66
2023/01/15 09:37:51;;;;;;;1.10;1.00;;;6.60;98.00;;;;;;5049830;28;20543;-65
2023/01/15 09:40:40;;;;;;;1.10;1.00;;;6.60;98.00;;;;;;5049631;28;20486;-65
2023/01/15 09:43:15;;;;;;;1.10;1.00;;;6.70;98.00;;;;;;5049472;28;20494;-66
2023/01/15 09:45:50;;;;;;;1.10;1.00;;;6.70;98.00;;;;;;5049625;28;20545;-65
2023/01/15 09:48:32;;;;;;;1.10;0.90;;;6.80;98.00;;;;;;5049145;28;20489;-67
2023/01/15 09:51:09;;;;;;;1.10;0.90;;;6.90;98.00;;;;;;5043179;28;20536;-66
2023/01/15 09:54:00;;;;;;;1.77;1.20;;;6.90;98.00;;;;;;5049243;28;20878;-65
2023/01/15 09:56:31;;;;;;;1.30;1.07;;;7.10;98.00;;;;;;5033228;28;20462;-66
2023/01/15 09:59:03;;;;;;;1.20;1.10;;;7.10;98.00;;;;;;5049223;28;20976;-66
2023/01/15 10:01:33;;;;;;;1.10;0.90;;;7.10;98.00;;;;;;5047853;28;20861;-66
2023/01/15 10:04:07;;;;;;;1.23;1.13;;;7.00;98.00;;;;;;5048948;28;21074;-65
2023/01/15 10:06:41;;;;;;;1.10;0.93;;;6.90;98.00;;;;;;5049062;28;20516;-65
2023/01/15 10:09:15;;;;;;;1.20;1.07;;;7.00;98.00;;;;;;5049078;28;20476;-66
2023/01/15 10:14:40;;;;;;;1.30;1.10;;;7.00;98.00;;;;;;5047890;28;20820;-66
2023/01/15 10:17:19;;;;;;;1.10;0.97;;;6.90;98.00;;;;;;5047236;28;20471;-65
2023/01/15 10:19:48;;;;;;;1.10;0.90;;;7.10;98.00;;;;;;5049040;28;20473;-66
2023/01/15 10:22:28;;;;;;;1.10;1.00;;;7.00;98.00;;;;;;5030999;28;20890;-66
2023/01/15 10:24:57;;;;;;;1.10;0.90;;;7.00;98.00;;;;;;5048747;28;20462;-65
2023/01/15 10:27:27;;;;;;;1.23;1.00;;;7.00;98.00;;;;;;5049262;28;20572;-65
2023/01/15 10:30:01;;;;;;;1.43;1.17;;;7.10;98.00;;;;;;5048901;28;20828;-65
2023/01/15 10:32:39;;;;;;;1.10;1.00;;;7.00;98.00;;;;;;5048771;28;20492;-66
2023/01/15 10:35:34;;;;;;;1.23;1.10;;;7.00;98.00;;;;;;5031193;28;20462;-66
2023/01/15 10:38:12;;;;;;;1.20;1.00;;;7.10;98.00;;;;;;5045717;28;20964;-66
2023/01/15 10:41:07;;;;;;;1.40;1.10;;;7.10;98.00;;;;;;5048496;28;20467;-65
2023/01/15 10:43:47;;;;;;;1.40;1.10;;;7.20;98.00;;;;;;5046606;28;20867;-66
2023/01/15 10:46:17;;;;;;;1.30;1.00;;;7.00;98.00;;;;;;5048496;28;20465;-65
2023/01/15 10:48:48;;;;;;;1.10;0.90;;;6.80;98.00;;;;;;5048444;28;20856;-66
2023/01/15 10:51:21;;;;;;;1.10;1.00;;;6.70;98.00;;;;;;5037392;28;20473;-65
2023/01/15 10:53:53;;;;;;;1.10;0.90;;;6.60;98.00;;;;;;5031519;28;20467;-65
2023/01/15 10:56:31;;;;;;;1.30;0.90;;;6.60;98.00;;;;;;5031630;28;20457;-64
2023/01/15 10:59:07;;;;;;;1.10;0.90;;;6.50;98.00;;;;;;5031555;28;20523;-64
2023/01/15 11:01:35;;;;;;;1.73;1.30;;;6.30;98.00;;;;;;5031402;28;20458;-64
2023/01/15 11:04:05;;;;;;;1.30;1.00;;;6.20;98.00;;;;;;5031663;28;20894;-65
2023/01/15 11:06:34;;;;;;;1.40;1.10;;;6.30;98.00;;;;;;5031565;28;20513;-65
2023/01/15 11:09:02;;;;;;;1.10;1.10;;;6.30;98.00;;;;;;5031627;28;20458;-64
2023/01/15 11:19:35;;;;;;;1.20;1.00;;;6.20;98.00;;;;;;5031391;28;20495;-64
2023/01/15 11:20:17;;;;;;;1.10;1.00;;;5.70;98.00;;;;;;5048177;28;20455;-64
2023/01/15 11:22:46;;;;;;;1.10;0.90;;;5.60;98.00;;;;;;5048172;28;20533;-64
2023/01/15 11:25:14;;;;;;;1.10;0.90;;;5.50;98.00;;;;;;5048433;28;20459;-64
2023/01/15 11:27:41;;;;;;;1.10;1.00;;;5.50;98.00;;;;;;5052096;28;20467;-64
2023/01/15 11:30:28;;;;;;;1.10;1.00;;;5.50;98.00;;;;;;5052149;28;20456;-64
2023/01/15 11:32:57;;;;;;;1.10;0.90;;;5.50;98.00;;;;;;5052428;28;20821;-64
2023/01/15 11:35:24;;;;;;;1.30;1.10;;;5.50;98.00;;;;;;5051937;28;20555;-64
2023/01/15 11:38:07;;;;;;;1.10;1.00;;;5.60;98.00;;;;;;5052010;28;20463;-64
2023/01/15 11:40:34;;;;;;;1.10;0.90;;;5.60;98.00;;;;;;5043731;28;20462;-65
2023/01/15 11:51:34;;;;;;;1.30;0.90;;;5.40;98.00;;;;;;5035866;28;20482;-65
2023/01/15 11:54:08;;;;;;;1.10;0.90;;;5.20;98.00;;;;;;5051808;28;20836;-64
2023/01/15 11:56:36;;;;;;;1.10;0.93;;;5.30;98.00;;;;;;5051718;28;20464;-66
2023/01/15 11:59:09;;;;;;;1.10;1.00;;;5.20;98.00;;;;;;5051915;28;20458;-65
2023/01/15 12:01:40;;;;;;;1.10;1.00;;;5.00;98.00;;;;;;5033319;28;21207;-66
2023/01/15 12:04:26;;;;;;;1.27;1.00;;;5.00;98.00;;;;;;5051174;28;20499;-64
2023/01/15 12:06:53;;;;;;;1.10;1.00;;;5.00;98.00;;;;;;5051556;28;20468;-66
2023/01/15 12:09:32;;;;;;;1.10;1.00;;;5.00;98.00;;;;;;5033808;28;21030;-64
2023/01/15 12:12:15;;;;;;;1.40;1.00;;;4.90;98.00;;;;;;5051260;28;20446;-65
2023/01/15 12:14:56;;;;;;;1.10;1.00;;;4.90;98.00;;;;;;5051193;28;20529;-65
2023/01/15 12:17:46;;;;;;;1.10;1.00;;;4.90;98.00;;;;;;5051209;28;20459;-65
2023/01/15 12:20:22;;;;;;;1.10;1.03;;;4.90;98.00;;;;;;5051025;28;20870;-64
2023/01/15 12:23:10;;;;;;;1.50;1.00;;;5.00;98.00;;;;;;5051235;28;21032;-64
2023/01/15 12:25:53;;;;;;;1.10;0.90;;;4.90;98.00;;;;;;5034562;28;20467;-63
2023/01/15 12:28:26;;;;;;;1.40;1.00;;;5.00;98.00;;;;;;5050992;28;20462;-64
2023/01/15 12:31:01;;;;;;;1.10;1.00;;;5.00;98.00;;;;;;5050899;28;20521;-64
2023/01/15 12:33:40;;;;;;;1.40;1.10;;;5.10;98.00;;;;;;5051063;28;20831;-65
2023/01/15 12:36:13;;;;;;;1.20;1.00;;;5.10;98.00;;;;;;5051101;28;20476;-66
2023/01/15 12:38:51;;;;;;;1.10;1.00;;;5.00;98.00;;;;;;5049823;28;20463;-65
2023/01/15 12:44:58;;;;;;;1.10;0.97;;;5.00;98.00;;;;;;5050783;28;20478;-65
2023/01/15 12:47:01;;;;;;;1.10;0.90;;;5.10;98.00;;;;;;5050729;28;20928;-65
2023/01/15 12:49:38;;;;;;;1.10;0.90;;;5.10;98.00;;;;;;5049151;28;20474;-65
2023/01/15 12:52:10;;;;;;;1.97;1.00;;;5.10;98.00;;;;;;5050887;28;20461;-65
2023/01/15 12:54:44;;;;;;;1.10;0.90;;;5.20;98.00;;;;;;5050629;28;20457;-67
2023/01/15 12:57:20;;;;;;;1.60;1.17;;;5.20;98.00;;;;;;5050756;28;20879;-65
2023/01/15 12:59:54;;;;;;;1.10;1.00;;;5.20;98.00;;;;;;5050438;28;20813;-65
2023/01/15 13:02:28;;;;;;;1.20;1.00;;;5.20;98.00;;;;;;5050374;28;20465;-65
2023/01/15 13:05:02;;;;;;;1.10;0.90;;;5.10;98.00;;;;;;5050157;28;20602;-65
2023/01/15 13:07:36;;;;;;;1.10;0.93;;;5.20;98.00;;;;;;5050264;28;20460;-65
2023/01/15 13:10:07;;;;;;;1.30;1.10;;;5.30;98.00;;;;;;5050122;28;20459;-65
2023/01/15 13:12:36;;;;;;;1.10;0.90;;;5.30;98.00;;;;;;5050172;28;20520;-65
2023/01/15 13:15:05;;;;;;;1.10;1.00;;;5.40;98.00;;;;;;5050055;28;20464;-65
2023/01/15 13:17:43;;;;;;;1.10;0.90;;;5.30;98.00;;;;;;5050004;28;20867;-65
2023/01/15 13:20:26;;;;;;;1.20;1.00;;;5.30;98.00;;;;;;5050324;28;20814;-65
2023/01/15 13:23:06;;;;;;;1.10;1.00;;;5.30;98.00;;;;;;5050311;28;20485;-65
2023/01/15 13:25:54;;;;;;;1.10;0.90;;;5.40;98.00;;;;;;5050143;28;20850;-66
2023/01/15 13:28:50;;;;;;;1.10;1.00;;;5.40;98.00;;;;;;5049841;28;20870;-64
2023/01/15 13:31:48;;;;;;;1.30;1.00;;;5.40;98.00;;;;;;5047775;28;20891;-65
2023/01/15 13:34:24;;;;;;;1.10;0.90;;;5.40;98.00;;;;;;5036488;28;20458;-65
2023/01/15 13:36:53;;;;;;;1.10;0.90;;;5.50;98.00;;;;;;5049814;28;20476;-65
2023/01/15 13:39:23;;;;;;;1.20;1.00;;;5.50;98.00;;;;;;5049509;28;20551;-67
2023/01/15 13:44:44;;;;;;;1.20;1.00;;;5.50;98.00;;;;;;5044329;28;20973;-64
2023/01/15 13:47:17;;;;;;;1.10;1.00;;;5.60;98.00;;;;;;5032599;28;20466;-65
2023/01/15 13:49:50;;;;;;;1.17;0.93;;;5.60;98.00;;;;;;5046825;28;21012;-65
2023/01/15 13:52:22;;;;;;;1.20;1.00;;;5.60;98.00;;;;;;5051779;28;20468;-64
2023/01/15 13:54:50;;;;;;;1.40;1.10;;;5.60;98.00;;;;;;5051890;28;20514;-65
2023/01/15 13:57:34;;;;;;;1.10;0.90;;;5.50;98.00;;;;;;5050576;28;20459;-65
2023/01/15 14:00:04;;;;;;;1.20;1.10;;;5.50;98.00;;;;;;5051732;28;20462;-65
2023/01/15 14:02:33;;;;;;;1.20;1.10;;;5.50;98.00;;;;;;5051733;28;20817;-65
2023/01/15 14:05:11;;;;;;;1.20;1.00;;;5.60;98.00;;;;;;5050679;28;20855;-65
2023/01/15 14:07:38;;;;;;;1.10;1.00;;;5.60;98.00;;;;;;5051726;28;20489;-65
2023/01/15 14:10:34;;;;;;;1.73;0.90;;;5.70;98.00;;;;;;5051764;28;20883;-65
2023/01/15 14:13:45;;;;;;;1.50;1.00;;;5.60;98.00;;;;;;5051817;28;20549;-64